Bassett, Nebraska
Current Conditions -  °F | °C
As of 5:55 PM on Saturday 25 Oct 2014 (Local Time) from KANW Reporting Station
Clear Clear  
Wind Chill: 65°   Ceiling: Unl
Heat Index: 65°   Visibility: 10mi
Dew Point: 33°   Wind: 7mph
Humidity: 30%   Direction: 100°E
Pressure: 30.04"   Gusts: NA
Location:  42.59°N, 99.54°W
Report Text: KANW 252255Z AUTO 10006KT 10SM CLR 19/01 A3004 RMK AO2 T01860008
Loading
Personal Weather Stations






























Interactive Weather Map
Tropical Storm Tracking
New forecast layout! Learn more

10-Day Weather Forecast

Advertisements
Track Severe Weather on mobile